createdAt,value
2022-11-14T00:00:47.898Z,10.74
2022-11-14T00:05:50.876Z,10.72
2022-11-14T00:10:53.750Z,10.71
2022-11-14T00:15:56.886Z,10.64
2022-11-14T00:20:59.748Z,10.56
2022-11-14T00:26:02.553Z,10.53
2022-11-14T00:31:06.028Z,10.51
2022-11-14T00:36:09.058Z,10.49
2022-11-14T00:41:11.880Z,10.46
2022-11-14T00:46:14.678Z,10.45
2022-11-14T00:51:17.474Z,10.46
2022-11-14T00:56:20.292Z,10.46
2022-11-14T01:01:23.134Z,10.45
2022-11-14T01:06:26.241Z,10.41
2022-11-14T01:11:29.094Z,10.39
2022-11-14T01:16:32.011Z,10.39
2022-11-14T01:21:35.209Z,10.39
2022-11-14T01:26:38.020Z,10.37
2022-11-14T01:31:42.430Z,10.34
2022-11-14T01:36:45.508Z,10.30
2022-11-14T01:41:48.308Z,10.28
2022-11-14T01:46:56.768Z,10.25
2022-11-14T01:52:06.158Z,10.20
2022-11-14T01:57:11.192Z,10.14
2022-11-14T02:02:17.486Z,10.08
2022-11-14T02:07:20.653Z,10.07
2022-11-14T02:12:24.302Z,10.05
2022-11-14T02:17:30.067Z,10.00
2022-11-14T02:22:33.724Z,9.97
2022-11-14T02:27:39.962Z,9.94
2022-11-14T02:33:09.449Z,9.91
2022-11-14T02:38:07.104Z,9.85
2022-11-14T02:43:09.909Z,9.84
2022-11-14T02:48:12.785Z,9.84
2022-11-14T02:53:15.712Z,9.80
2022-11-14T02:58:18.481Z,9.74
2022-11-14T03:03:21.244Z,9.69
2022-11-14T03:08:24.241Z,9.68
2022-11-14T03:13:30.330Z,9.65
2022-11-14T03:18:33.461Z,9.61
2022-11-14T03:23:36.857Z,9.59
2022-11-14T03:28:40.179Z,9.56
2022-11-14T03:33:43.012Z,9.54
2022-11-14T03:38:45.825Z,9.50
2022-11-14T03:43:48.626Z,9.46
2022-11-14T03:48:51.472Z,9.43
2022-11-14T03:53:54.306Z,9.39
2022-11-14T03:58:57.115Z,9.34
2022-11-14T04:03:59.974Z,9.32
2022-11-14T04:09:02.919Z,9.31
2022-11-14T04:14:05.731Z,9.30
2022-11-14T04:19:08.548Z,9.28
2022-11-14T04:24:11.471Z,9.27
2022-11-14T04:29:14.463Z,9.28
2022-11-14T04:34:17.264Z,9.28
2022-11-14T04:39:20.151Z,9.26
2022-11-14T04:44:22.947Z,9.27
2022-11-14T04:49:25.711Z,9.28
2022-11-14T04:54:28.440Z,9.23
2022-11-14T04:59:31.202Z,9.24
2022-11-14T05:04:33.967Z,9.36
2022-11-14T05:09:36.954Z,9.51
2022-11-14T05:14:39.712Z,9.64
2022-11-14T05:19:42.489Z,9.69
2022-11-14T05:24:45.261Z,9.70
2022-11-14T05:29:48.086Z,9.72
2022-11-14T05:34:50.899Z,9.77
2022-11-14T05:39:53.736Z,9.83
2022-11-14T05:44:56.536Z,9.83
2022-11-14T05:49:59.295Z,9.83
2022-11-14T05:55:02.473Z,9.86
2022-11-14T06:00:06.034Z,9.91
2022-11-14T06:05:09.568Z,9.93
2022-11-14T06:10:13.618Z,9.89
2022-11-14T06:15:16.819Z,9.88
2022-11-14T06:20:19.759Z,9.91
2022-11-14T06:25:22.552Z,9.95
2022-11-14T06:30:25.346Z,10.00
2022-11-14T06:35:28.320Z,10.01
2022-11-14T06:40:31.212Z,9.98
2022-11-14T06:45:33.962Z,10.02
2022-11-14T06:50:36.734Z,10.05
2022-11-14T06:55:39.559Z,10.08
2022-11-14T07:00:42.482Z,10.02
2022-11-14T07:05:47.673Z,10.06
2022-11-14T07:10:51.029Z,10.06
2022-11-14T07:16:18.081Z,10.08
2022-11-14T07:21:21.167Z,10.15
2022-11-14T07:26:24.333Z,10.22
2022-11-14T07:31:29.337Z,10.26
2022-11-14T07:36:33.270Z,10.30
2022-11-14T07:41:41.414Z,10.43
2022-11-14T07:46:44.469Z,10.61
2022-11-14T07:51:47.289Z,10.79
2022-11-14T07:56:51.149Z,10.93
2022-11-14T08:01:55.586Z,11.01
2022-11-14T08:12:43.340Z,11.36
2022-11-14T08:17:46.509Z,11.58
2022-11-14T08:22:49.358Z,11.80
2022-11-14T08:27:53.623Z,11.88
2022-11-14T08:32:56.506Z,11.84
2022-11-14T08:38:02.072Z,11.81
2022-11-14T08:43:07.727Z,11.76
2022-11-14T08:48:11.840Z,11.60
2022-11-14T08:53:14.828Z,11.50
2022-11-14T08:58:17.861Z,11.45
2022-11-14T09:03:25.489Z,11.50
2022-11-14T09:08:31.827Z,11.52
2022-11-14T09:13:35.595Z,11.50
2022-11-14T09:18:38.464Z,11.47
2022-11-14T09:23:41.339Z,11.48
2022-11-14T09:28:49.322Z,11.48
2022-11-14T09:33:52.347Z,11.54
2022-11-14T09:38:55.170Z,11.60
2022-11-14T09:44:22.094Z,11.60
2022-11-14T09:49:51.331Z,11.62
2022-11-14T09:55:01.493Z,11.70
2022-11-14T10:00:23.675Z,11.74
2022-11-14T10:05:48.391Z,11.76
2022-11-14T10:11:29.597Z,11.74
2022-11-14T10:17:05.336Z,11.76
2022-11-14T10:23:01.326Z,11.86
2022-11-14T10:28:32.252Z,12.00
2022-11-14T10:33:56.665Z,12.24
2022-11-14T10:39:10.978Z,12.37
2022-11-14T10:44:21.804Z,12.42
2022-11-14T10:49:25.981Z,12.41
2022-11-14T10:55:13.572Z,12.36
2022-11-14T11:00:19.591Z,12.27
2022-11-14T11:05:30.603Z,12.15
2022-11-14T11:10:54.223Z,12.04
2022-11-14T11:16:01.005Z,11.97
2022-11-14T11:21:12.677Z,11.86
2022-11-14T11:26:30.965Z,11.77
2022-11-14T11:31:53.755Z,11.77
2022-11-14T11:37:17.372Z,11.83
2022-11-14T11:48:10.296Z,11.74
2022-11-14T11:53:26.398Z,11.66
2022-11-14T11:58:46.148Z,11.58
2022-11-14T12:03:54.528Z,11.57
2022-11-14T12:09:22.028Z,11.59
2022-11-14T12:15:06.769Z,11.59
2022-11-14T12:20:48.143Z,11.45
2022-11-14T12:26:06.060Z,11.29
2022-11-14T12:31:14.262Z,11.18
2022-11-14T12:36:17.403Z,11.10
2022-11-14T12:41:38.392Z,11.04
2022-11-14T12:47:03.363Z,11.05
2022-11-14T12:52:46.933Z,11.09
2022-11-14T12:58:26.850Z,11.15
2022-11-14T13:03:49.093Z,11.18
2022-11-14T13:09:07.266Z,11.11
2022-11-14T13:14:29.089Z,11.12
2022-11-14T13:19:50.923Z,11.10
2022-11-14T13:24:59.697Z,11.01
2022-11-14T13:30:08.174Z,10.90
2022-11-14T13:35:37.219Z,10.87
2022-11-14T13:40:51.349Z,10.79
2022-11-14T13:46:13.761Z,10.68
2022-11-14T13:56:59.785Z,10.49
2022-11-14T14:02:43.840Z,10.20
2022-11-14T14:07:49.742Z,9.89
2022-11-14T14:13:10.970Z,9.70
2022-11-14T14:18:40.219Z,9.53
2022-11-14T14:23:54.956Z,9.35
2022-11-14T14:29:13.969Z,9.17
2022-11-14T14:34:29.242Z,8.98
2022-11-14T14:39:32.409Z,8.75
2022-11-14T14:44:40.707Z,8.58
2022-11-14T14:49:44.621Z,8.43
2022-11-14T14:54:55.123Z,8.29
2022-11-14T15:00:01.883Z,8.18
2022-11-14T15:05:05.436Z,8.09
2022-11-14T15:10:19.390Z,8.00
2022-11-14T15:15:25.816Z,7.89
2022-11-14T15:20:30.429Z,7.81
2022-11-14T15:25:33.830Z,7.76
2022-11-14T15:30:36.950Z,7.72
2022-11-14T15:35:40.446Z,7.69
2022-11-14T15:40:43.581Z,7.66
2022-11-14T15:45:46.517Z,7.61
2022-11-14T15:50:51.001Z,7.53
2022-11-14T15:55:53.843Z,7.47
2022-11-14T16:00:56.931Z,7.43
2022-11-14T16:06:01.955Z,7.41
2022-11-14T16:11:05.831Z,7.40
2022-11-14T16:16:08.803Z,7.42
2022-11-14T16:21:16.512Z,7.43
2022-11-14T16:26:20.403Z,7.45
2022-11-14T16:31:24.336Z,7.50
2022-11-14T16:36:27.750Z,7.58
2022-11-14T16:41:30.758Z,7.63
2022-11-14T16:46:33.631Z,7.68
2022-11-14T16:51:51.938Z,7.71
2022-11-14T16:56:55.232Z,7.72
2022-11-14T17:01:58.276Z,7.72
2022-11-14T17:07:01.243Z,7.74
2022-11-14T17:12:04.798Z,7.75
2022-11-14T17:17:07.865Z,7.73
2022-11-14T17:22:10.988Z,7.71
2022-11-14T17:27:14.005Z,7.74
2022-11-14T17:32:17.208Z,7.75
2022-11-14T17:37:20.113Z,7.73
2022-11-14T17:42:22.954Z,7.70
2022-11-14T17:47:25.815Z,7.70
2022-11-14T17:52:28.605Z,7.74
2022-11-14T17:57:31.462Z,7.76
2022-11-14T18:02:34.458Z,7.78
2022-11-14T18:07:37.355Z,7.77
2022-11-14T18:12:40.841Z,7.76
2022-11-14T18:17:43.656Z,7.78
2022-11-14T18:22:46.733Z,7.81
2022-11-14T18:27:49.837Z,7.80
2022-11-14T18:32:52.946Z,7.74
2022-11-14T18:37:57.725Z,7.70
2022-11-14T18:43:01.285Z,7.69
2022-11-14T18:48:04.284Z,7.63
2022-11-14T18:53:07.495Z,7.59
2022-11-14T18:58:10.332Z,7.56
2022-11-14T19:03:14.739Z,7.53
2022-11-14T19:08:18.611Z,7.51
2022-11-14T19:13:24.939Z,7.55
2022-11-14T19:18:27.832Z,7.62
2022-11-14T19:23:31.163Z,7.67
2022-11-14T19:28:34.289Z,7.58
2022-11-14T19:33:40.284Z,7.48
2022-11-14T19:38:43.400Z,7.41
2022-11-14T19:43:46.961Z,7.34
2022-11-14T19:48:49.921Z,7.32
2022-11-14T19:53:53.512Z,7.31
2022-11-14T19:58:56.799Z,7.32
2022-11-14T20:04:01.799Z,7.32
2022-11-14T20:09:08.056Z,7.34
2022-11-14T20:14:12.383Z,7.37
2022-11-14T20:19:16.275Z,7.38
2022-11-14T20:24:22.604Z,7.40
2022-11-14T20:29:25.459Z,7.43
2022-11-14T20:34:28.224Z,7.45
2022-11-14T20:39:31.121Z,7.46
2022-11-14T20:44:33.953Z,7.47
2022-11-14T20:49:36.795Z,7.49
2022-11-14T20:54:39.762Z,7.52
2022-11-14T20:59:42.673Z,7.51
2022-11-14T21:04:45.595Z,7.51
2022-11-14T21:09:49.019Z,7.53
2022-11-14T21:14:51.816Z,7.47
2022-11-14T21:19:54.813Z,7.43
2022-11-14T21:24:57.640Z,7.42
2022-11-14T21:30:00.518Z,7.40
2022-11-14T21:35:09.547Z,7.32
2022-11-14T21:40:13.239Z,7.24
2022-11-14T21:45:16.328Z,7.21
2022-11-14T21:50:19.205Z,7.18
2022-11-14T21:55:22.326Z,7.13
2022-11-14T22:00:25.136Z,7.09
2022-11-14T22:05:27.960Z,7.07
2022-11-14T22:10:30.957Z,7.09
2022-11-14T22:15:35.716Z,7.10
2022-11-14T22:20:38.604Z,7.09
2022-11-14T22:25:41.487Z,7.00
2022-11-14T22:30:44.355Z,6.92
2022-11-14T22:35:47.183Z,6.88
2022-11-14T22:40:50.049Z,6.85
2022-11-14T22:45:53.220Z,6.78
2022-11-14T22:51:20.390Z,6.72
2022-11-14T22:56:25.642Z,6.68
2022-11-14T23:01:33.866Z,6.68
2022-11-14T23:06:37.007Z,6.69
2022-11-14T23:11:39.896Z,6.73
2022-11-14T23:16:42.658Z,6.77
2022-11-14T23:21:45.487Z,6.79
2022-11-14T23:26:49.752Z,6.79
2022-11-14T23:31:52.575Z,6.80
2022-11-14T23:36:55.369Z,6.82
2022-11-14T23:41:58.160Z,6.87
2022-11-14T23:47:01.152Z,6.90
2022-11-14T23:52:04.157Z,6.91
2022-11-14T23:57:06.965Z,6.89
